createdAt,value
2017-08-27T00:00:08.447Z,12.90
2017-08-27T00:02:34.949Z,13.40
2017-08-27T00:05:01.421Z,13.43
2017-08-27T00:07:27.860Z,13.87
2017-08-27T00:09:54.304Z,14.27
2017-08-27T00:12:20.735Z,13.03
2017-08-27T00:14:47.182Z,13.83
2017-08-27T00:17:13.627Z,13.57
2017-08-27T00:19:40.068Z,12.97
2017-08-27T00:22:06.533Z,13.40
2017-08-27T00:24:32.986Z,12.60
2017-08-27T00:26:59.422Z,12.50
2017-08-27T00:29:25.855Z,12.60
2017-08-27T00:31:52.291Z,13.50
2017-08-27T00:34:18.749Z,14.20
2017-08-27T00:36:45.205Z,13.00
2017-08-27T00:39:11.668Z,15.10
2017-08-27T00:41:38.136Z,13.23
2017-08-27T00:44:04.653Z,14.40
2017-08-27T00:46:31.137Z,14.60
2017-08-27T00:48:57.639Z,13.30
2017-08-27T00:51:24.161Z,13.20
2017-08-27T00:53:50.648Z,11.77
2017-08-27T00:56:17.858Z,12.60
2017-08-27T00:58:44.323Z,11.67
2017-08-27T01:01:10.923Z,12.30
2017-08-27T01:03:37.410Z,13.33
2017-08-27T01:06:03.887Z,13.73
2017-08-27T01:08:30.370Z,12.80
2017-08-27T01:10:56.908Z,11.93
2017-08-27T01:13:23.403Z,12.77
2017-08-27T01:15:49.881Z,12.80
2017-08-27T01:18:16.337Z,14.00
2017-08-27T01:20:42.813Z,13.20
2017-08-27T01:23:09.309Z,13.00
2017-08-27T01:25:35.775Z,14.10
2017-08-27T01:28:02.273Z,13.07
2017-08-27T01:30:28.733Z,14.33
2017-08-27T01:32:55.182Z,13.60
2017-08-27T01:35:21.624Z,14.30
2017-08-27T01:37:48.109Z,13.43
2017-08-27T01:40:14.552Z,13.80
2017-08-27T01:42:41.035Z,14.07
2017-08-27T01:45:07.507Z,15.20
2017-08-27T01:47:33.955Z,16.70
2017-08-27T01:50:00.453Z,14.90
2017-08-27T01:52:26.904Z,14.60
2017-08-27T01:54:53.395Z,14.37
2017-08-27T01:57:19.878Z,14.13
2017-08-27T01:59:46.333Z,14.17
2017-08-27T02:02:12.779Z,14.23
2017-08-27T02:04:39.228Z,14.10
2017-08-27T02:07:05.685Z,13.90
2017-08-27T02:09:32.116Z,13.93
2017-08-27T02:11:58.659Z,13.33
2017-08-27T02:14:25.133Z,13.90
2017-08-27T02:16:51.614Z,13.23
2017-08-27T02:19:18.055Z,13.17
2017-08-27T02:21:44.528Z,15.03
2017-08-27T02:24:10.993Z,13.83
2017-08-27T02:26:37.444Z,14.57
2017-08-27T02:29:03.893Z,14.40
2017-08-27T02:31:30.339Z,15.00
2017-08-27T02:33:56.792Z,15.13
2017-08-27T02:36:23.252Z,15.80
2017-08-27T02:38:49.702Z,14.77
2017-08-27T02:41:16.168Z,15.63
2017-08-27T02:43:42.648Z,15.07
2017-08-27T02:46:09.072Z,14.40
2017-08-27T02:48:35.519Z,14.33
2017-08-27T02:51:01.958Z,14.00
2017-08-27T02:53:28.413Z,12.80
2017-08-27T02:55:54.876Z,13.93
2017-08-27T02:58:21.353Z,14.70
2017-08-27T03:00:47.898Z,15.33
2017-08-27T03:03:14.351Z,14.17
2017-08-27T03:05:40.808Z,14.17
2017-08-27T03:08:07.268Z,13.80
2017-08-27T03:10:33.723Z,14.00
2017-08-27T03:13:00.235Z,14.30
2017-08-27T03:15:26.670Z,15.10
2017-08-27T03:17:53.177Z,13.80
2017-08-27T03:20:19.611Z,13.83
2017-08-27T03:22:46.103Z,14.27
2017-08-27T03:25:12.568Z,13.17
2017-08-27T03:27:39.050Z,12.80
2017-08-27T03:30:05.529Z,12.73
2017-08-27T03:32:31.973Z,13.90
2017-08-27T03:34:58.424Z,11.93
2017-08-27T03:37:24.873Z,12.10
2017-08-27T03:39:51.317Z,11.37
2017-08-27T03:42:17.763Z,11.70
2017-08-27T03:44:44.229Z,11.73
2017-08-27T03:47:10.685Z,13.77
2017-08-27T03:49:37.142Z,13.43
2017-08-27T03:52:03.584Z,13.57
2017-08-27T03:54:30.046Z,13.93
2017-08-27T03:56:56.504Z,11.50
2017-08-27T03:59:22.967Z,12.00
2017-08-27T04:01:49.388Z,10.90
2017-08-27T04:04:15.898Z,9.23
2017-08-27T04:06:42.350Z,9.50
2017-08-27T04:09:08.823Z,8.80
2017-08-27T04:11:35.284Z,16.93
2017-08-27T04:14:01.736Z,14.60
2017-08-27T04:16:28.239Z,11.77
2017-08-27T04:18:54.678Z,11.90
2017-08-27T04:21:21.127Z,10.67
2017-08-27T04:23:47.579Z,10.77
2017-08-27T04:26:14.031Z,12.30
2017-08-27T04:28:40.489Z,12.83
2017-08-27T04:31:06.932Z,11.63
2017-08-27T04:33:33.380Z,11.00
2017-08-27T04:35:59.832Z,10.37
2017-08-27T04:38:26.334Z,11.13
2017-08-27T04:40:52.780Z,11.93
2017-08-27T04:43:19.239Z,12.50
2017-08-27T04:45:45.666Z,10.83
2017-08-27T04:48:12.121Z,11.40
2017-08-27T04:50:38.563Z,11.00
2017-08-27T04:53:05.017Z,11.37
2017-08-27T04:57:58.270Z,11.73
2017-08-27T05:00:24.760Z,11.07
2017-08-27T05:02:51.206Z,10.67
2017-08-27T05:05:17.653Z,11.23
2017-08-27T05:07:44.168Z,10.10
2017-08-27T05:10:10.601Z,12.00
2017-08-27T05:12:37.037Z,11.90
2017-08-27T05:15:03.508Z,12.57
2017-08-27T05:17:30.692Z,12.43
2017-08-27T05:19:57.135Z,12.10
2017-08-27T05:22:23.595Z,12.13
2017-08-27T05:24:50.032Z,12.50
2017-08-27T05:27:16.510Z,11.93
2017-08-27T05:29:42.953Z,11.23
2017-08-27T05:32:09.463Z,13.23
2017-08-27T05:34:35.904Z,11.50
2017-08-27T05:37:02.393Z,11.00
2017-08-27T05:39:28.857Z,11.50
2017-08-27T05:41:55.332Z,11.07
2017-08-27T05:44:21.790Z,11.30
2017-08-27T05:46:48.232Z,10.70
2017-08-27T05:49:14.681Z,10.60
2017-08-27T05:51:41.130Z,12.10
2017-08-27T05:54:07.584Z,11.50
2017-08-27T05:56:34.044Z,12.03
2017-08-27T05:59:00.495Z,11.50
2017-08-27T06:01:26.948Z,12.33
2017-08-27T06:03:53.396Z,15.73
2017-08-27T06:06:19.857Z,11.80
2017-08-27T06:08:46.318Z,11.87
2017-08-27T06:11:12.764Z,10.20
2017-08-27T06:13:39.520Z,11.70
2017-08-27T06:16:05.985Z,10.70
2017-08-27T06:18:32.419Z,9.27
2017-08-27T06:20:58.884Z,8.87
2017-08-27T06:23:25.339Z,8.03
2017-08-27T06:25:51.776Z,7.20
2017-08-27T06:28:18.216Z,7.30
2017-08-27T06:30:44.702Z,6.47
2017-08-27T06:33:11.168Z,6.43
2017-08-27T06:35:37.870Z,6.93
2017-08-27T06:38:04.308Z,7.50
2017-08-27T06:40:30.787Z,7.47
2017-08-27T06:42:57.253Z,7.47
2017-08-27T06:45:23.688Z,7.90
2017-08-27T06:47:50.148Z,6.20
2017-08-27T06:50:16.608Z,6.70
2017-08-27T06:52:43.084Z,6.70
2017-08-27T06:55:09.565Z,7.03
2017-08-27T06:57:36.006Z,7.40
2017-08-27T07:00:02.497Z,6.30
2017-08-27T07:02:29.715Z,7.63
2017-08-27T07:04:56.162Z,5.50
2017-08-27T07:07:22.603Z,6.20
2017-08-27T07:09:49.084Z,6.50
2017-08-27T07:12:15.550Z,6.20
2017-08-27T07:14:41.983Z,5.80
2017-08-27T07:17:08.427Z,6.33
2017-08-27T07:19:34.889Z,6.10
2017-08-27T07:22:01.332Z,6.17
2017-08-27T07:24:27.796Z,6.60
2017-08-27T07:26:54.230Z,7.07
2017-08-27T07:29:20.673Z,11.63
2017-08-27T07:31:47.128Z,9.70
2017-08-27T07:34:13.588Z,6.73
2017-08-27T07:36:40.034Z,6.87
2017-08-27T07:39:06.460Z,6.00
2017-08-27T07:41:32.915Z,7.27
2017-08-27T07:43:59.431Z,8.13
2017-08-27T07:46:26.048Z,6.20
2017-08-27T07:48:52.470Z,7.23
2017-08-27T07:51:18.938Z,6.73
2017-08-27T07:53:45.395Z,6.93
2017-08-27T07:56:11.853Z,7.13
2017-08-27T07:58:38.326Z,7.57
2017-08-27T08:01:04.767Z,8.30
2017-08-27T08:03:31.958Z,7.83
2017-08-27T08:05:58.471Z,7.90
2017-08-27T08:08:24.910Z,8.50
2017-08-27T08:10:51.343Z,9.10
2017-08-27T08:13:17.800Z,8.40
2017-08-27T08:15:44.246Z,8.27
2017-08-27T08:18:10.704Z,11.43
2017-08-27T08:20:37.127Z,12.73
2017-08-27T08:23:03.584Z,15.03
2017-08-27T08:25:30.011Z,9.80
2017-08-27T08:27:56.479Z,9.10
2017-08-27T08:30:22.948Z,9.60
2017-08-27T08:32:49.383Z,10.17
2017-08-27T08:35:15.798Z,9.43
2017-08-27T08:37:42.281Z,9.97
2017-08-27T08:40:08.719Z,10.03
2017-08-27T08:42:35.206Z,9.00
2017-08-27T08:45:01.649Z,9.77
2017-08-27T08:47:28.099Z,10.10
2017-08-27T08:49:54.524Z,8.50
2017-08-27T08:52:21.008Z,9.87
2017-08-27T08:54:47.484Z,9.50
2017-08-27T08:57:13.895Z,9.07
2017-08-27T09:02:16.334Z,8.60
2017-08-27T09:04:42.783Z,9.03
2017-08-27T09:07:09.225Z,9.40
2017-08-27T09:09:42.061Z,8.80
2017-08-27T09:12:08.497Z,9.40
2017-08-27T09:14:34.951Z,8.97
2017-08-27T09:17:02.141Z,9.50
2017-08-27T09:19:28.612Z,9.03
2017-08-27T09:21:55.040Z,7.93
2017-08-27T09:24:21.469Z,8.93
2017-08-27T09:26:47.906Z,8.87
2017-08-27T09:29:14.372Z,8.53
2017-08-27T09:31:40.836Z,9.90
2017-08-27T09:34:07.285Z,8.40
2017-08-27T09:36:33.736Z,8.23
2017-08-27T09:39:00.175Z,8.43
2017-08-27T09:41:26.619Z,8.00
2017-08-27T09:43:53.080Z,9.20
2017-08-27T09:46:19.951Z,8.20
2017-08-27T09:48:46.382Z,7.60
2017-08-27T09:51:12.853Z,8.60
2017-08-27T09:53:39.304Z,7.90
2017-08-27T09:56:05.740Z,8.50
2017-08-27T09:58:32.193Z,8.27
2017-08-27T10:00:58.649Z,8.43
2017-08-27T10:03:25.112Z,8.00
2017-08-27T10:05:51.557Z,8.93
2017-08-27T10:08:18.035Z,9.03
2017-08-27T10:10:44.516Z,7.90
2017-08-27T10:13:10.952Z,9.07
2017-08-27T10:15:37.399Z,9.73
2017-08-27T10:18:03.851Z,9.67
2017-08-27T10:20:30.262Z,8.77
2017-08-27T10:22:56.729Z,8.73
2017-08-27T10:25:23.230Z,8.40
2017-08-27T10:27:49.655Z,8.27
2017-08-27T10:30:16.087Z,7.93
2017-08-27T10:32:42.543Z,8.50
2017-08-27T10:35:09.019Z,6.90
2017-08-27T10:37:35.467Z,9.17
2017-08-27T10:40:01.957Z,7.67
2017-08-27T10:42:28.417Z,8.60
2017-08-27T10:44:54.882Z,8.90
2017-08-27T10:47:21.534Z,8.30
2017-08-27T10:49:47.997Z,7.57
2017-08-27T10:52:14.453Z,7.93
2017-08-27T10:54:40.907Z,7.10
2017-08-27T10:57:07.352Z,7.13
2017-08-27T10:59:33.812Z,7.63
2017-08-27T11:02:00.241Z,7.20
2017-08-27T11:04:26.694Z,7.90
2017-08-27T11:06:53.138Z,7.77
2017-08-27T11:09:19.589Z,7.00
2017-08-27T11:11:46.075Z,6.90
2017-08-27T11:14:12.558Z,7.83
2017-08-27T11:16:39.044Z,7.80
2017-08-27T11:19:05.506Z,6.50
2017-08-27T11:21:31.987Z,8.10
2017-08-27T11:23:58.464Z,7.43
2017-08-27T11:26:24.948Z,7.90
2017-08-27T11:28:51.424Z,7.47
2017-08-27T11:31:17.889Z,7.40
2017-08-27T11:33:44.372Z,6.50
2017-08-27T11:36:10.831Z,8.30
2017-08-27T11:38:37.303Z,7.20
2017-08-27T11:41:03.814Z,7.33
2017-08-27T11:43:30.261Z,7.90
2017-08-27T11:45:56.701Z,7.03
2017-08-27T11:48:23.173Z,8.13
2017-08-27T11:50:49.609Z,7.30
2017-08-27T11:53:16.098Z,7.33
2017-08-27T11:55:42.555Z,7.40
2017-08-27T11:58:09.065Z,7.70
2017-08-27T12:00:35.551Z,7.83
2017-08-27T12:03:02.033Z,8.33
2017-08-27T12:05:29.433Z,7.60
2017-08-27T12:07:55.881Z,7.47
2017-08-27T12:10:22.324Z,7.07
2017-08-27T12:12:48.756Z,6.80
2017-08-27T12:15:15.213Z,7.33
2017-08-27T12:17:41.660Z,6.80
2017-08-27T12:20:08.103Z,7.07
2017-08-27T12:22:34.551Z,7.20
2017-08-27T12:25:01.031Z,7.57
2017-08-27T12:27:27.497Z,7.03
2017-08-27T12:29:53.939Z,7.60
2017-08-27T12:32:20.467Z,7.47
2017-08-27T12:34:46.896Z,7.40
2017-08-27T12:37:13.354Z,7.70
2017-08-27T12:39:39.797Z,7.83
2017-08-27T12:42:06.240Z,8.70
2017-08-27T12:44:32.707Z,6.90
2017-08-27T12:46:59.185Z,8.47
2017-08-27T12:49:25.625Z,7.77
2017-08-27T12:51:52.071Z,8.03
2017-08-27T12:54:18.503Z,8.23
2017-08-27T12:56:44.940Z,7.97
2017-08-27T12:59:11.365Z,7.10
2017-08-27T13:01:37.831Z,8.17
2017-08-27T13:04:04.292Z,7.60
2017-08-27T13:06:30.725Z,8.57
2017-08-27T13:08:57.179Z,9.20
2017-08-27T13:11:23.629Z,10.07
2017-08-27T13:13:50.164Z,9.77
2017-08-27T13:16:16.603Z,9.67
2017-08-27T13:18:43.056Z,9.60
2017-08-27T13:21:09.530Z,9.10
2017-08-27T13:23:36.000Z,9.93
2017-08-27T13:26:02.445Z,8.40
2017-08-27T13:28:28.901Z,9.40
2017-08-27T13:30:55.396Z,9.83
2017-08-27T13:33:21.854Z,9.63
2017-08-27T13:35:48.292Z,9.03
2017-08-27T13:38:14.738Z,9.63
2017-08-27T13:40:41.195Z,10.40
2017-08-27T13:43:07.644Z,9.93
2017-08-27T13:45:34.080Z,9.30
2017-08-27T13:48:00.540Z,10.20
2017-08-27T13:50:26.972Z,9.87
2017-08-27T13:52:53.435Z,10.50
2017-08-27T13:55:20.316Z,10.30
2017-08-27T13:57:46.773Z,9.83
2017-08-27T14:00:13.228Z,9.33
2017-08-27T14:02:39.658Z,8.60
2017-08-27T14:05:06.125Z,8.63
2017-08-27T14:07:32.597Z,8.63
2017-08-27T14:09:59.070Z,9.60
2017-08-27T14:12:25.519Z,9.03
2017-08-27T14:14:51.960Z,9.43
2017-08-27T14:17:18.435Z,9.53
2017-08-27T14:19:44.906Z,10.13
2017-08-27T14:22:11.360Z,10.03
2017-08-27T14:24:37.834Z,9.33
2017-08-27T14:27:04.806Z,10.77
2017-08-27T14:29:31.291Z,10.50
2017-08-27T14:31:57.721Z,11.57
2017-08-27T14:34:24.208Z,11.70
2017-08-27T14:36:50.667Z,10.70
2017-08-27T14:39:17.118Z,11.53
2017-08-27T14:41:43.571Z,10.57
2017-08-27T14:44:10.048Z,10.57
2017-08-27T14:46:36.504Z,10.33
2017-08-27T14:49:03.901Z,11.63
2017-08-27T14:51:30.353Z,11.70
2017-08-27T14:53:56.834Z,11.40
2017-08-27T14:56:23.283Z,12.30
2017-08-27T14:58:49.714Z,11.17
2017-08-27T15:01:16.175Z,10.43
2017-08-27T15:03:42.634Z,12.10
2017-08-27T15:06:09.087Z,10.80
2017-08-27T15:08:35.576Z,11.50
2017-08-27T15:11:02.037Z,11.17
2017-08-27T15:13:28.481Z,11.17
2017-08-27T15:15:54.927Z,11.07
2017-08-27T15:18:21.349Z,11.40
2017-08-27T15:20:47.857Z,12.00
2017-08-27T15:23:14.378Z,12.90
2017-08-27T15:25:40.825Z,11.97
2017-08-27T15:28:07.299Z,10.80
2017-08-27T15:30:33.774Z,12.27
2017-08-27T15:33:00.204Z,11.90
2017-08-27T15:35:26.704Z,11.47
2017-08-27T15:37:53.158Z,12.87
2017-08-27T15:40:19.640Z,12.53
2017-08-27T15:42:46.075Z,13.20
2017-08-27T15:45:12.515Z,11.40
2017-08-27T15:47:38.973Z,12.07
2017-08-27T15:50:05.452Z,13.47
2017-08-27T15:52:31.913Z,11.77
2017-08-27T15:54:58.388Z,11.73
2017-08-27T15:57:24.878Z,14.03
2017-08-27T15:59:51.394Z,13.40
2017-08-27T16:02:17.838Z,11.57
2017-08-27T16:04:44.295Z,10.00
2017-08-27T16:07:10.779Z,11.77
2017-08-27T16:09:37.454Z,11.67
2017-08-27T16:12:03.897Z,12.57
2017-08-27T16:14:30.323Z,11.60
2017-08-27T16:16:56.791Z,12.20
2017-08-27T16:19:23.250Z,11.27
2017-08-27T16:21:49.707Z,9.67
2017-08-27T16:24:16.154Z,9.60
2017-08-27T16:26:42.697Z,8.60
2017-08-27T16:29:09.175Z,9.73
2017-08-27T16:31:35.680Z,8.33
2017-08-27T16:34:02.170Z,8.23
2017-08-27T16:36:28.657Z,9.10
2017-08-27T16:38:55.169Z,8.07
2017-08-27T16:41:21.659Z,8.50
2017-08-27T16:43:48.147Z,8.13
2017-08-27T16:46:14.666Z,8.40
2017-08-27T16:48:41.172Z,9.60
2017-08-27T16:51:07.652Z,8.73
2017-08-27T16:53:34.146Z,9.07
2017-08-27T16:56:00.592Z,9.97
2017-08-27T16:58:27.099Z,10.30
2017-08-27T17:00:53.588Z,10.10
2017-08-27T17:03:20.055Z,11.30
2017-08-27T17:05:46.480Z,20.33
2017-08-27T17:08:12.923Z,14.73
2017-08-27T17:10:39.444Z,21.70
2017-08-27T17:13:05.968Z,12.70
2017-08-27T17:15:32.450Z,14.83
2017-08-27T17:17:58.909Z,12.70
2017-08-27T17:20:25.396Z,13.80
2017-08-27T17:22:52.285Z,11.47
2017-08-27T17:25:18.758Z,11.47
2017-08-27T17:27:45.236Z,11.37
2017-08-27T17:30:12.240Z,15.70
2017-08-27T17:32:38.747Z,11.67
2017-08-27T17:35:05.247Z,11.70
2017-08-27T17:37:31.746Z,17.30
2017-08-27T17:39:58.227Z,12.10
2017-08-27T17:42:24.710Z,47.03
2017-08-27T17:44:51.224Z,15.37
2017-08-27T17:47:17.691Z,18.07
2017-08-27T17:49:44.199Z,13.40
2017-08-27T17:52:10.721Z,33.40
2017-08-27T17:54:37.241Z,18.13
2017-08-27T17:57:03.723Z,14.70
2017-08-27T17:59:30.172Z,18.70
2017-08-27T18:01:56.670Z,18.90
2017-08-27T18:04:23.176Z,13.90
2017-08-27T18:06:49.644Z,12.57
2017-08-27T18:09:16.151Z,16.47
2017-08-27T18:11:42.595Z,14.67
2017-08-27T18:14:09.102Z,13.57
2017-08-27T18:16:35.591Z,13.07
2017-08-27T18:19:02.084Z,13.33
2017-08-27T18:21:28.527Z,13.47
2017-08-27T18:23:55.027Z,19.47
2017-08-27T18:26:21.922Z,15.13
2017-08-27T18:28:48.417Z,16.73
2017-08-27T18:31:14.883Z,39.50
2017-08-27T18:33:41.387Z,27.60
2017-08-27T18:36:07.848Z,41.43
2017-08-27T18:38:34.308Z,47.50
2017-08-27T18:41:01.501Z,35.70
2017-08-27T18:43:27.990Z,33.90
2017-08-27T18:45:54.432Z,25.00
2017-08-27T18:48:20.889Z,20.63
2017-08-27T18:50:47.322Z,16.60
2017-08-27T18:53:13.775Z,16.63
2017-08-27T18:55:40.346Z,14.30
2017-08-27T18:58:06.799Z,15.37
2017-08-27T19:00:33.284Z,13.77
2017-08-27T19:03:02.482Z,14.80
2017-08-27T19:05:28.939Z,15.03
2017-08-27T19:07:55.427Z,61.67
2017-08-27T19:10:22.099Z,40.30
2017-08-27T19:12:49.497Z,22.80
2017-08-27T19:15:15.940Z,19.53
2017-08-27T19:17:42.491Z,16.60
2017-08-27T19:20:08.990Z,21.43
2017-08-27T19:22:35.452Z,24.10
2017-08-27T19:25:01.910Z,24.90
2017-08-27T19:27:28.376Z,16.53
2017-08-27T19:29:54.860Z,33.57
2017-08-27T19:32:21.328Z,27.00
2017-08-27T19:34:48.003Z,21.80
2017-08-27T19:37:14.466Z,23.40
2017-08-27T19:39:40.952Z,22.53
2017-08-27T19:42:07.388Z,31.07
2017-08-27T19:44:33.869Z,19.63
2017-08-27T19:47:00.336Z,19.90
2017-08-27T19:49:26.841Z,18.17
2017-08-27T19:51:53.302Z,19.77
2017-08-27T19:54:19.742Z,19.23
2017-08-27T19:56:46.225Z,17.27
2017-08-27T19:59:12.705Z,36.77
2017-08-27T20:01:39.214Z,27.20
2017-08-27T20:04:05.699Z,14.87
2017-08-27T20:06:32.145Z,14.97
2017-08-27T20:08:58.617Z,15.20
2017-08-27T20:11:25.084Z,13.87
2017-08-27T20:13:51.538Z,16.13
2017-08-27T20:16:18.188Z,16.33
2017-08-27T20:18:44.640Z,14.20
2017-08-27T20:21:11.120Z,15.30
2017-08-27T20:23:37.820Z,16.83
2017-08-27T20:26:04.264Z,15.63
2017-08-27T20:28:30.685Z,14.43
2017-08-27T20:30:59.788Z,15.93
2017-08-27T20:33:26.239Z,16.30
2017-08-27T20:35:52.720Z,14.13
2017-08-27T20:38:19.597Z,15.40
2017-08-27T20:40:46.358Z,16.47
2017-08-27T20:43:12.820Z,14.50
2017-08-27T20:45:39.269Z,16.97
2017-08-27T20:48:05.740Z,16.20
2017-08-27T20:50:32.203Z,17.30
2017-08-27T20:52:58.670Z,14.80
2017-08-27T20:55:25.128Z,15.43
2017-08-27T20:57:51.574Z,14.10
2017-08-27T21:00:18.041Z,14.73
2017-08-27T21:02:44.504Z,15.70
2017-08-27T21:05:10.979Z,13.30
2017-08-27T21:07:37.441Z,15.57
2017-08-27T21:10:03.932Z,14.37
2017-08-27T21:12:30.414Z,15.70
2017-08-27T21:14:56.854Z,14.90
2017-08-27T21:17:23.311Z,14.37
2017-08-27T21:19:49.758Z,15.20
2017-08-27T21:22:16.213Z,13.83
2017-08-27T21:24:42.662Z,17.60
2017-08-27T21:27:09.152Z,13.87
2017-08-27T21:29:35.609Z,13.40
2017-08-27T21:32:02.064Z,14.90
2017-08-27T21:34:28.531Z,12.40
2017-08-27T21:36:54.981Z,13.97
2017-08-27T21:39:21.466Z,14.03
2017-08-27T21:41:47.894Z,14.03
2017-08-27T21:44:14.367Z,15.90
2017-08-27T21:46:41.651Z,15.80
2017-08-27T21:49:08.129Z,15.47
2017-08-27T21:51:34.601Z,15.33
2017-08-27T21:54:01.053Z,15.73
2017-08-27T21:56:27.554Z,15.73
2017-08-27T21:58:54.023Z,15.70
2017-08-27T22:01:20.500Z,16.53
2017-08-27T22:03:46.965Z,16.17
2017-08-27T22:06:13.430Z,14.77
2017-08-27T22:08:39.895Z,14.07
2017-08-27T22:11:12.458Z,14.67
2017-08-27T22:13:39.363Z,14.53
2017-08-27T22:16:05.827Z,13.70
2017-08-27T22:18:32.295Z,14.90
2017-08-27T22:20:58.752Z,14.07
2017-08-27T22:23:25.239Z,11.60
2017-08-27T22:25:51.706Z,13.50
2017-08-27T22:28:18.159Z,13.67
2017-08-27T22:30:58.435Z,12.50
2017-08-27T22:33:38.595Z,14.67
2017-08-27T22:36:05.073Z,15.00
2017-08-27T22:38:31.505Z,13.70
2017-08-27T22:40:58.063Z,12.90
2017-08-27T22:43:24.561Z,14.93
2017-08-27T22:45:51.048Z,13.50
2017-08-27T22:48:17.526Z,12.83
2017-08-27T22:50:44.066Z,13.43
2017-08-27T22:53:10.561Z,11.73
2017-08-27T22:55:37.043Z,12.03
2017-08-27T22:58:03.549Z,13.00
2017-08-27T23:00:30.097Z,13.03
2017-08-27T23:02:56.577Z,13.70
2017-08-27T23:05:23.558Z,12.60
2017-08-27T23:07:50.060Z,14.00
2017-08-27T23:10:16.518Z,11.47
2017-08-27T23:12:42.969Z,13.90
2017-08-27T23:15:09.462Z,14.07
2017-08-27T23:17:35.996Z,17.23
2017-08-27T23:20:02.461Z,14.37
2017-08-27T23:22:28.914Z,14.70
2017-08-27T23:24:55.408Z,13.40
2017-08-27T23:27:21.911Z,13.60
2017-08-27T23:29:48.373Z,12.87
2017-08-27T23:32:14.849Z,15.50
2017-08-27T23:34:41.336Z,14.80
2017-08-27T23:37:07.840Z,13.87
2017-08-27T23:39:34.321Z,13.83
2017-08-27T23:42:00.817Z,14.37
2017-08-27T23:44:27.321Z,13.30
2017-08-27T23:46:53.886Z,12.77
2017-08-27T23:49:20.342Z,12.27
2017-08-27T23:51:46.814Z,14.23
2017-08-27T23:54:13.298Z,14.23
2017-08-27T23:56:39.736Z,11.77
2017-08-27T23:59:06.184Z,14.53
